Time;durP1;ratioP1;P1;durP2;ratioP2;P2;SDS_P1;SDS_P2;PMS_P1;PMS_P2;Temp;Humidity;BMP_temperature;BMP_pressure;BME280_temperature;BME280_humidity;BME280_pressure;Samples;Min_cycle;Max_cycle;Signal;HPM_P1;HPM_P2
2023/10/19 00:00:19;;;;;;;3.27;3.07;;;;;;;10.73;90.44;94004.09;4307759;33;20194;-62
2023/10/19 00:02:51;;;;;;;3.10;2.90;;;;;;;10.81;90.39;93995.25;4303373;33;20246;-62
2023/10/19 00:05:16;;;;;;;4.43;4.10;;;;;;;10.85;89.94;94001.47;4315589;33;20209;-62
2023/10/19 00:07:42;;;;;;;4.33;4.03;;;;;;;10.93;89.49;93998.75;4305582;33;20265;-62
2023/10/19 00:10:09;;;;;;;2.77;2.67;;;;;;;10.89;89.35;94000.50;4305356;33;20182;-62
2023/10/19 00:12:34;;;;;;;4.43;4.23;;;;;;;10.92;89.25;94007.81;4318808;33;20244;-61
2023/10/19 00:14:59;;;;;;;3.63;3.47;;;;;;;10.68;90.93;94015.69;4306822;33;20182;-62
2023/10/19 00:17:27;;;;;;;3.80;3.60;;;;;;;10.72;90.93;94003.31;4318981;33;20208;-62
2023/10/19 00:20:27;;;;;;;4.53;4.13;;;;;;;10.53;91.18;93995.06;4302598;33;20194;-62
2023/10/19 00:22:44;;;;;;;3.70;3.40;;;;;;;10.68;90.77;93997.88;4312767;33;20186;-62
2023/10/19 00:25:13;;;;;;;3.83;3.60;;;;;;;10.73;90.74;93988.97;4315293;33;20186;-62
2023/10/19 00:27:39;;;;;;;4.83;3.40;;;;;;;10.66;91.02;93986.06;4302526;33;20242;-62
2023/10/19 00:30:06;;;;;;;3.57;3.27;;;;;;;10.59;91.25;93977.88;4303671;33;20241;-61
2023/10/19 00:32:33;;;;;;;3.90;3.70;;;;;;;10.70;91.00;93988.84;4318566;33;20193;-61
2023/10/19 00:35:07;;;;;;;3.17;2.97;;;;;;;10.30;93.04;93976.84;4306804;33;20206;-62
2023/10/19 00:37:41;;;;;;;3.37;3.20;;;;;;;10.48;93.35;93971.41;4319806;33;20190;-63
2023/10/19 00:40:15;;;;;;;3.93;3.63;;;;;;;10.54;92.74;93978.84;4307316;33;20240;-62
2023/10/19 00:42:46;;;;;;;3.47;3.17;;;;;;;10.56;92.44;93976.62;4311253;33;20190;-62
2023/10/19 00:45:13;;;;;;;4.53;3.93;;;;;;;10.61;92.08;93971.13;4315295;33;20237;-63
2023/10/19 00:47:42;;;;;;;4.00;3.80;;;;;;;10.78;91.33;93975.50;4304647;33;20198;-62
2023/10/19 00:50:17;;;;;;;7.60;3.10;;;;;;;10.52;92.63;93964.34;4310387;33;20209;-62
2023/10/19 00:52:52;;;;;;;2.63;2.53;;;;;;;10.62;92.43;93955.97;4310754;33;20242;-62
2023/10/19 00:55:20;;;;;;;3.20;3.00;;;;;;;10.61;91.67;93947.25;4318340;33;20204;-62
2023/10/19 00:57:49;;;;;;;6.33;3.80;;;;;;;10.62;91.79;93948.03;4317569;33;20333;-63
2023/10/19 01:00:29;;;;;;;3.43;3.23;;;;;;;10.85;90.81;93946.53;4302836;33;20226;-62
2023/10/19 01:02:59;;;;;;;3.93;3.73;;;;;;;10.89;90.62;93944.78;4302931;33;20189;-62
2023/10/19 01:05:31;;;;;;;3.43;3.23;;;;;;;10.78;91.51;93948.97;4317876;33;20209;-63
2023/10/19 01:07:57;;;;;;;3.47;3.27;;;;;;;10.81;90.82;93952.81;4304663;33;20186;-63
2023/10/19 01:10:23;;;;;;;3.03;2.93;;;;;;;10.87;91.01;93949.63;4304362;33;20204;-63
2023/10/19 01:12:52;;;;;;;2.47;2.37;;;;;;;10.76;91.28;93951.19;4304348;33;20193;-62
2023/10/19 01:17:57;;;;;;;3.50;3.30;;;;;;;10.84;90.64;93934.37;4318104;33;20193;-62
2023/10/19 01:20:33;;;;;;;3.33;3.13;;;;;;;10.97;89.94;93935.97;4304167;33;20209;-62
2023/10/19 01:25:41;;;;;;;2.43;2.33;;;;;;;10.95;90.81;93945.34;4316266;33;20214;-63
2023/10/19 01:28:07;;;;;;;2.90;2.80;;;;;;;10.88;90.77;93956.50;4304353;33;20223;-62
2023/10/19 01:30:33;;;;;;;3.93;3.57;;;;;;;10.93;90.85;93963.47;4317885;33;20200;-63
2023/10/19 01:32:59;;;;;;;3.40;3.10;;;;;;;10.77;91.35;93957.25;4306307;33;20194;-61
2023/10/19 01:35:24;;;;;;;3.43;3.13;;;;;;;10.62;91.92;93966.59;4304593;33;20200;-62
2023/10/19 01:37:50;;;;;;;4.53;4.23;;;;;;;10.78;91.81;93977.38;4309085;33;20190;-62
2023/10/19 01:40:20;;;;;;;3.77;3.57;;;;;;;10.50;92.75;93945.34;4319011;33;20199;-62
2023/10/19 01:42:45;;;;;;;5.20;3.87;;;;;;;10.51;93.36;93944.25;4304281;33;20210;-62
2023/10/19 01:45:11;;;;;;;2.90;2.80;;;;;;;10.71;92.36;93946.06;4317372;33;20193;-62
2023/10/19 01:47:37;;;;;;;3.40;3.20;;;;;;;10.49;93.24;93951.75;4304010;33;20217;-62
2023/10/19 01:50:05;;;;;;;3.43;3.23;;;;;;;10.82;91.96;93954.38;4318058;33;20213;-62
2023/10/19 01:52:30;;;;;;;3.70;3.50;;;;;;;10.61;92.52;93949.13;4304644;33;20201;-62
2023/10/19 01:55:02;;;;;;;2.67;2.57;;;;;;;10.51;92.63;93950.31;4317113;33;20194;-62
2023/10/19 01:57:27;;;;;;;5.27;4.17;;;;;;;10.45;92.96;93942.88;4301682;33;20190;-62
2023/10/19 01:59:53;;;;;;;4.00;3.80;;;;;;;10.46;93.20;93949.75;4316019;33;20202;-62
2023/10/19 02:02:21;;;;;;;5.83;3.90;;;;;;;10.47;93.14;93938.81;4301661;33;20212;-62
2023/10/19 02:04:49;;;;;;;2.83;2.73;;;;;;;10.50;93.19;93937.38;4303140;33;20202;-63
2023/10/19 02:07:17;;;;;;;3.30;3.10;;;;;;;10.43;93.65;93929.94;4303080;33;20221;-63
2023/10/19 02:09:43;;;;;;;5.43;4.10;;;;;;;10.50;93.59;93921.47;4317121;33;20206;-63
2023/10/19 02:12:08;;;;;;;3.83;3.57;;;;;;;10.47;93.67;93912.31;4301732;33;20202;-63
2023/10/19 02:14:33;;;;;;;5.87;3.37;;;;;;;10.42;93.73;93924.97;4314896;33;20237;-62
2023/10/19 02:17:01;;;;;;;2.60;2.50;;;;;;;10.70;92.80;93936.56;4317341;33;20262;-63
2023/10/19 02:19:28;;;;;;;3.50;3.40;;;;;;;10.66;93.41;93935.66;4301899;33;20249;-63
2023/10/19 02:22:08;;;;;;;3.70;3.07;;;;;;;10.67;93.32;93939.88;4300047;33;20201;-63
2023/10/19 02:24:33;;;;;;;3.33;3.23;;;;;;;10.53;94.04;93942.03;4294302;33;20177;-63
2023/10/19 02:27:01;;;;;;;3.83;3.63;;;;;;;10.59;94.15;93935.44;4293153;33;20189;-63
2023/10/19 02:29:26;;;;;;;2.43;2.33;;;;;;;10.43;94.93;93937.12;4318748;33;20189;-62
2023/10/19 02:31:53;;;;;;;3.07;2.83;;;;;;;10.45;95.13;93930.41;4304511;33;20190;-63
2023/10/19 02:34:18;;;;;;;3.47;3.27;;;;;;;10.46;95.30;93931.19;4315158;33;20197;-63
2023/10/19 02:36:47;;;;;;;4.23;3.80;;;;;;;10.48;95.41;93928.97;4304464;33;20194;-63
2023/10/19 02:39:20;;;;;;;3.23;2.93;;;;;;;10.46;95.50;93925.87;4323581;33;20197;-63
2023/10/19 02:41:48;;;;;;;3.17;2.97;;;;;;;10.49;95.47;93925.22;4329531;33;20185;-63
2023/10/19 02:44:19;;;;;;;3.13;2.93;;;;;;;10.49;95.42;93927.88;4318116;33;20197;-63
2023/10/19 02:46:45;;;;;;;3.13;2.93;;;;;;;10.59;95.23;93930.91;4330979;33;20284;-63
2023/10/19 02:49:18;;;;;;;3.27;3.07;;;;;;;10.71;94.54;93930.16;4317902;33;20198;-62
2023/10/19 02:51:44;;;;;;;2.53;2.43;;;;;;;10.57;95.21;93916.44;4329410;33;20185;-63
2023/10/19 02:54:19;;;;;;;3.33;3.23;;;;;;;10.56;95.41;93914.88;4315347;33;20198;-63
2023/10/19 02:56:47;;;;;;;2.47;2.37;;;;;;;10.45;95.69;93916.38;4317907;33;20241;-63
2023/10/19 02:59:15;;;;;;;3.80;3.60;;;;;;;10.58;95.38;93910.03;4318267;33;20204;-63
2023/10/19 03:01:44;;;;;;;3.67;3.47;;;;;;;10.35;96.12;93903.53;4317715;33;20207;-62
2023/10/19 03:04:12;;;;;;;3.80;3.60;;;;;;;10.37;96.09;93907.41;4315254;33;20177;-63
2023/10/19 03:06:38;;;;;;;2.53;2.43;;;;;;;10.55;95.62;93908.03;4317061;33;20194;-62
2023/10/19 03:09:12;;;;;;;4.00;3.70;;;;;;;10.45;95.65;93903.13;4310090;33;20237;-63
2023/10/19 03:11:40;;;;;;;3.77;2.80;;;;;;;10.52;95.70;93898.84;4326273;33;20185;-63
2023/10/19 03:14:06;;;;;;;3.07;2.93;;;;;;;10.50;96.18;93897.63;4317824;33;20257;-63
2023/10/19 03:16:31;;;;;;;3.53;3.33;;;;;;;10.57;95.84;93889.91;4318520;33;20209;-64
2023/10/19 03:18:56;;;;;;;3.93;3.70;;;;;;;10.75;95.16;93896.56;4336110;33;20245;-63
2023/10/19 03:21:27;;;;;;;3.10;2.90;;;;;;;10.69;94.37;93897.88;4312854;33;20228;-63
2023/10/19 03:24:01;;;;;;;3.33;3.03;;;;;;;10.60;95.11;93894.53;4320334;32;20177;-63
2023/10/19 03:26:30;;;;;;;2.83;2.73;;;;;;;10.60;95.35;93894.53;4333917;33;20257;-62
2023/10/19 03:29:14;;;;;;;4.23;2.83;;;;;;;10.59;95.59;93890.38;4315734;33;20186;-63
2023/10/19 03:31:47;;;;;;;3.47;3.27;;;;;;;10.75;94.70;93874.59;4321348;33;20229;-62
2023/10/19 03:34:13;;;;;;;2.63;2.53;;;;;;;10.81;94.27;93878.56;4320779;33;20201;-62
2023/10/19 03:36:39;;;;;;;3.00;2.70;;;;;;;10.74;94.65;93873.81;4333862;33;20182;-62
2023/10/19 03:39:11;;;;;;;3.50;3.30;;;;;;;10.71;94.87;93868.38;4320402;33;20281;-62
2023/10/19 03:41:38;;;;;;;2.93;2.10;;;;;;;10.87;94.63;93867.41;4320216;33;20197;-62
2023/10/19 03:44:04;;;;;;;3.27;3.10;;;;;;;10.80;94.47;93861.12;4313763;33;20178;-62
2023/10/19 03:46:30;;;;;;;3.47;3.17;;;;;;;10.77;94.86;93864.41;4322585;33;20220;-62
2023/10/19 03:49:04;;;;;;;4.40;4.00;;;;;;;10.83;94.56;93858.56;4330101;33;20183;-62
2023/10/19 03:51:39;;;;;;;3.07;2.87;;;;;;;10.83;94.55;93861.19;4320857;33;20204;-62
2023/10/19 03:54:20;;;;;;;3.73;3.40;;;;;;;10.89;94.03;93859.13;4328632;33;20243;-62
2023/10/19 03:56:47;;;;;;;4.37;3.17;;;;;;;10.90;93.90;93856.13;4333577;33;20244;-62
2023/10/19 03:59:13;;;;;;;7.43;3.27;;;;;;;10.78;95.04;93853.47;4320367;33;20197;-62
2023/10/19 04:01:38;;;;;;;6.43;3.10;;;;;;;10.84;94.29;93859.31;4333457;33;20243;-62
2023/10/19 04:04:04;;;;;;;3.67;3.43;;;;;;;10.94;93.90;93862.34;4320568;33;20290;-62
2023/10/19 04:06:30;;;;;;;2.70;2.60;;;;;;;10.90;94.30;93860.66;4335774;33;20185;-62
2023/10/19 04:08:55;;;;;;;3.10;2.70;;;;;;;10.81;94.90;93859.97;4330651;33;20198;-62
2023/10/19 04:11:26;;;;;;;3.07;2.97;;;;;;;10.83;95.04;93850.59;4320039;33;20288;-62
2023/10/19 04:13:53;;;;;;;3.77;3.40;;;;;;;10.88;94.97;93853.03;4333545;33;20357;-62
2023/10/19 04:16:19;;;;;;;2.63;2.53;;;;;;;10.85;95.33;93847.59;4328439;33;20194;-62
2023/10/19 04:18:44;;;;;;;2.17;2.07;;;;;;;10.92;94.92;93853.94;4333311;33;20233;-62
2023/10/19 04:21:10;;;;;;;3.70;3.40;;;;;;;10.93;94.49;93852.81;4328189;33;20208;-62
2023/10/19 04:23:36;;;;;;;2.70;2.60;;;;;;;10.81;95.46;93855.44;4333405;33;20197;-63
2023/10/19 04:26:05;;;;;;;2.70;2.50;;;;;;;10.95;95.04;93852.50;4334419;33;20206;-63
2023/10/19 04:28:33;;;;;;;2.17;2.07;;;;;;;10.88;95.34;93852.25;4332815;33;20209;-62
2023/10/19 04:31:06;;;;;;;2.33;2.23;;;;;;;10.85;95.66;93850.25;4319763;33;20190;-62
2023/10/19 04:33:32;;;;;;;2.53;2.43;;;;;;;10.87;95.52;93848.06;4305583;33;20190;-63
2023/10/19 04:35:59;;;;;;;2.37;2.27;;;;;;;10.89;95.86;93851.94;4315508;33;20225;-62
2023/10/19 04:38:25;;;;;;;2.50;2.40;;;;;;;10.91;96.00;93833.81;4330578;33;20216;-62
2023/10/19 04:40:50;;;;;;;2.23;2.13;;;;;;;11.03;95.51;93817.09;4321962;33;22025;-62
2023/10/19 04:43:21;;;;;;;3.40;3.20;;;;;;;11.06;95.70;93824.41;4328830;33;20205;-63
2023/10/19 04:45:46;;;;;;;2.87;2.67;;;;;;;11.24;94.45;93830.25;4327559;32;20186;-62
2023/10/19 04:48:12;;;;;;;2.50;2.40;;;;;;;11.07;95.56;93833.13;4314593;33;20250;-63
2023/10/19 04:50:37;;;;;;;3.37;3.07;;;;;;;11.19;94.38;93830.50;4315818;33;20262;-63
2023/10/19 04:53:03;;;;;;;1.97;1.87;;;;;;;11.29;94.17;93837.97;4328170;33;20232;-63
2023/10/19 04:55:31;;;;;;;2.60;2.40;;;;;;;11.26;94.16;93830.69;4329105;33;20247;-62
2023/10/19 04:57:56;;;;;;;4.07;3.77;;;;;;;11.26;94.03;93847.38;4332694;33;20231;-62
2023/10/19 05:00:24;;;;;;;1.90;1.80;;;;;;;11.20;94.35;93832.81;4319570;33;20194;-62
2023/10/19 05:02:51;;;;;;;2.77;2.57;;;;;;;11.28;94.55;93831.12;4332374;33;20190;-62
2023/10/19 05:05:17;;;;;;;2.80;2.70;;;;;;;11.29;94.11;93835.31;4315395;33;20196;-63
2023/10/19 05:07:42;;;;;;;3.07;2.87;;;;;;;11.33;94.50;93828.25;4326798;33;20254;-62
2023/10/19 05:10:08;;;;;;;2.30;2.20;;;;;;;11.34;94.29;93821.84;4308300;33;20284;-62
2023/10/19 05:12:34;;;;;;;1.73;1.73;;;;;;;11.43;93.50;93829.69;4331930;33;20204;-62
2023/10/19 05:14:59;;;;;;;2.20;2.10;;;;;;;11.36;93.44;93822.28;4326874;33;20235;-62
2023/10/19 05:17:24;;;;;;;3.27;3.03;;;;;;;11.27;94.25;93816.31;4323934;33;20245;-62
2023/10/19 05:19:50;;;;;;;2.30;2.20;;;;;;;11.26;94.47;93815.53;4318850;33;20243;-62
2023/10/19 05:22:16;;;;;;;2.77;2.37;;;;;;;11.39;93.93;93810.22;4319483;33;20178;-62
2023/10/19 05:24:42;;;;;;;1.87;1.77;;;;;;;11.36;94.07;93815.09;4318852;33;20316;-62
2023/10/19 05:27:09;;;;;;;1.90;1.80;;;;;;;11.20;94.59;93810.81;4318465;33;20198;-62
2023/10/19 05:29:35;;;;;;;2.43;2.33;;;;;;;11.25;94.49;93810.56;4318783;33;20190;-62
2023/10/19 05:32:02;;;;;;;2.47;2.37;;;;;;;11.10;95.46;93811.25;4333295;33;20181;-62
2023/10/19 05:34:29;;;;;;;2.83;2.63;;;;;;;11.22;95.43;93819.22;4319422;33;20185;-62
2023/10/19 05:36:58;;;;;;;2.23;2.13;;;;;;;11.30;94.79;93823.59;4312345;33;20189;-62
2023/10/19 05:39:27;;;;;;;1.83;1.83;;;;;;;11.20;95.03;93816.09;4318699;33;20208;-62
2023/10/19 05:41:53;;;;;;;2.83;2.63;;;;;;;11.27;94.85;93821.63;4331136;33;20229;-62
2023/10/19 05:44:19;;;;;;;2.77;2.57;;;;;;;11.25;95.30;93818.50;4318581;33;20201;-62
2023/10/19 05:46:44;;;;;;;1.90;1.90;;;;;;;11.32;95.34;93822.16;4331291;33;20248;-63
2023/10/19 05:49:09;;;;;;;1.67;1.67;;;;;;;11.14;96.05;93812.91;4318770;33;20197;-62
2023/10/19 05:51:35;;;;;;;1.97;1.87;;;;;;;11.30;95.05;93815.62;4331757;33;20291;-63
2023/10/19 05:54:03;;;;;;;2.20;2.10;;;;;;;11.39;95.12;93811.00;4313589;33;20228;-62
2023/10/19 05:56:30;;;;;;;2.57;2.37;;;;;;;11.45;94.59;93806.97;4319019;33;20206;-62
2023/10/19 05:58:55;;;;;;;1.30;1.30;;;;;;;11.50;94.46;93803.31;4318391;33;20243;-62
2023/10/19 06:01:22;;;;;;;2.27;2.17;;;;;;;11.42;94.75;93801.59;4318423;32;20296;-62
2023/10/19 06:03:47;;;;;;;2.47;2.27;;;;;;;11.53;94.49;93800.78;4331192;32;20232;-62
2023/10/19 06:06:12;;;;;;;2.23;2.13;;;;;;;11.55;94.21;93805.75;4332006;33;20194;-63
2023/10/19 06:08:39;;;;;;;2.13;2.03;;;;;;;11.41;95.29;93805.34;4331994;33;20208;-63
2023/10/19 06:11:05;;;;;;;2.10;2.00;;;;;;;11.54;95.00;93802.31;4318329;33;20236;-62
2023/10/19 06:13:31;;;;;;;1.43;1.43;;;;;;;11.64;94.01;93803.72;4320138;33;20231;-63
2023/10/19 06:15:56;;;;;;;1.97;1.87;;;;;;;11.69;93.63;93800.81;4331270;33;20186;-62
2023/10/19 06:18:21;;;;;;;8.77;2.93;;;;;;;11.63;93.57;93799.53;4331437;33;20307;-63
2023/10/19 06:20:47;;;;;;;1.73;1.43;;;;;;;12.62;100.00;93798.75;4318106;32;20193;-63
2023/10/19 06:23:13;;;;;;;1.47;1.47;;;;;;;13.20;100.00;93804.28;4331721;33;20253;-63
2023/10/19 06:25:39;;;;;;;1.67;1.37;;;;;;;13.50;94.95;93807.25;4318177;33;20205;-63
2023/10/19 06:28:05;;;;;;;1.97;1.10;;;;;;;14.21;89.08;93808.62;4318250;33;20193;-62
2023/10/19 06:30:31;;;;;;;1.60;1.60;;;;;;;14.75;84.44;93813.84;4324947;33;20193;-63
2023/10/19 06:33:02;;;;;;;2.53;1.80;;;;;;;14.72;82.11;93814.53;4315946;33;20207;-63
2023/10/19 06:35:28;;;;;;;1.73;1.63;;;;;;;15.09;82.55;93812.84;4326816;33;20236;-63
2023/10/19 06:37:55;;;;;;;1.20;1.20;;;;;;;15.15;80.37;93815.22;4326842;33;20208;-63
2023/10/19 06:40:21;;;;;;;1.90;1.80;;;;;;;15.30;79.33;93814.28;4323080;33;20202;-63
2023/10/19 06:42:48;;;;;;;2.33;1.70;;;;;;;15.50;78.07;93801.59;4317738;33;20193;-63
2023/10/19 06:45:14;;;;;;;2.00;1.90;;;;;;;15.55;77.58;93802.06;4326210;33;20198;-63
2023/10/19 06:47:45;;;;;;;1.47;1.47;;;;;;;15.34;77.54;93797.19;4329816;33;20245;-63
2023/10/19 06:50:12;;;;;;;2.87;1.13;;;;;;;15.33;77.46;93795.66;4325713;33;20211;-63
2023/10/19 06:52:38;;;;;;;1.20;1.20;;;;;;;15.60;76.79;93796.41;4333848;33;20289;-63
2023/10/19 06:55:05;;;;;;;2.50;2.40;;;;;;;15.64;76.19;93786.53;4314216;33;20182;-63
2023/10/19 06:57:34;;;;;;;1.00;1.00;;;;;;;14.96;77.52;93789.37;4321860;33;20248;-63
2023/10/19 07:00:04;;;;;;;1.93;1.83;;;;;;;14.46;79.48;93790.44;4334469;33;20193;-63
2023/10/19 07:02:32;;;;;;;1.47;1.40;;;;;;;14.13;81.15;93798.97;4303797;33;20198;-63
2023/10/19 07:04:57;;;;;;;1.63;1.33;;;;;;;13.68;83.36;93801.16;4337694;32;20209;-63
2023/10/19 07:07:23;;;;;;;2.80;2.63;;;;;;;13.37;85.18;93788.69;4314384;33;20221;-65
2023/10/19 07:09:48;;;;;;;0.80;0.80;;;;;;;13.34;85.49;93793.94;4311132;33;20224;-64
2023/10/19 07:12:16;;;;;;;1.90;1.80;;;;;;;13.11;86.96;93793.00;4336175;33;20208;-63
2023/10/19 07:14:41;;;;;;;2.07;1.97;;;;;;;13.22;86.53;93794.84;4330508;33;20197;-63
2023/10/19 07:17:07;;;;;;;1.97;1.87;;;;;;;13.00;88.18;93790.91;4315270;33;20229;-63
2023/10/19 07:19:32;;;;;;;1.33;1.23;;;;;;;12.81;89.23;93790.06;4328262;33;20197;-63
2023/10/19 07:21:58;;;;;;;2.13;2.03;;;;;;;12.92;89.39;93791.06;4332730;33;20251;-62
2023/10/19 07:24:24;;;;;;;1.77;1.67;;;;;;;13.12;88.67;93791.91;4335679;33;20212;-62
2023/10/19 07:27:04;;;;;;;2.00;1.90;;;;;;;13.25;87.73;93799.47;4312196;33;20201;-62
2023/10/19 07:29:31;;;;;;;3.67;3.07;;;;;;;13.16;88.26;93806.09;4333626;33;20189;-62
2023/10/19 07:31:58;;;;;;;2.20;2.00;;;;;;;13.30;88.19;93806.44;4336287;33;20198;-62
2023/10/19 07:34:27;;;;;;;2.03;1.93;;;;;;;13.33;87.91;93797.72;4330449;33;20216;-62
2023/10/19 07:36:54;;;;;;;1.87;1.77;;;;;;;13.34;89.19;93793.94;4322539;33;20216;-63
2023/10/19 07:39:20;;;;;;;2.50;2.40;;;;;;;13.28;89.68;93787.38;4332357;33;20231;-64
2023/10/19 07:41:46;;;;;;;1.80;1.70;;;;;;;13.33;89.49;93792.41;4335136;33;20221;-64
2023/10/19 07:44:12;;;;;;;1.77;1.60;;;;;;;13.41;88.75;93802.09;4323711;27;20202;-60
2023/10/19 08:38:18;;;;;;;1.00;1.00;;;;;;;14.65;88.10;93751.13;4700611;27;20197;-58
2023/10/19 08:40:44;;;;;;;1.50;1.17;;;;;;;14.81;87.45;93753.66;4288842;33;20218;-62
2023/10/19 08:43:13;;;;;;;1.57;1.47;;;;;;;14.95;86.82;93747.78;4287093;33;20284;-61
2023/10/19 08:45:38;;;;;;;1.27;1.27;;;;;;;14.89;86.85;93744.63;4301058;33;20248;-62
2023/10/19 08:48:05;;;;;;;2.80;1.50;;;;;;;15.01;86.29;93743.66;4289520;33;20238;-61
2023/10/19 08:50:32;;;;;;;1.13;1.03;;;;;;;15.01;87.35;93743.66;4301365;33;20298;-61
2023/10/19 08:53:08;;;;;;;0.93;0.93;;;;;;;16.69;87.11;93734.53;4306583;32;20258;-63
2023/10/19 08:55:34;;;;;;;2.03;1.57;;;;;;;17.80;80.63;93739.44;4286538;33;20225;-62
2023/10/19 08:58:00;;;;;;;0.70;0.70;;;;;;;18.33;76.85;93741.47;4302539;33;20182;-62
2023/10/19 09:00:26;;;;;;;2.00;1.90;;;;;;;18.60;74.86;93738.50;4303532;33;20277;-60
2023/10/19 09:02:53;;;;;;;1.30;1.20;;;;;;;17.77;75.11;93747.47;4289781;33;20224;-60
2023/10/19 09:05:22;;;;;;;2.40;1.50;;;;;;;16.80;79.66;93750.69;4300574;33;20260;-61
2023/10/19 09:07:59;;;;;;;1.73;1.67;;;;;;;16.33;80.57;93744.13;4301352;33;20249;-61
2023/10/19 09:10:27;;;;;;;2.03;1.93;;;;;;;16.02;82.40;93741.88;4303432;33;20279;-60
2023/10/19 09:12:59;;;;;;;2.67;1.40;;;;;;;15.69;84.10;93746.13;4301188;33;20240;-61
2023/10/19 09:15:26;;;;;;;1.77;1.67;;;;;;;15.68;84.61;93749.16;4288151;33;20229;-60
2023/10/19 09:17:54;;;;;;;1.23;1.23;;;;;;;15.79;84.93;93742.03;4301924;33;20253;-61
2023/10/19 09:20:27;;;;;;;1.20;1.20;;;;;;;15.73;85.57;93740.81;4289167;33;20277;-61
2023/10/19 09:22:56;;;;;;;8.13;1.50;;;;;;;15.51;86.98;93744.31;4302774;32;20222;-62
2023/10/19 09:25:22;;;;;;;2.10;2.00;;;;;;;15.44;87.35;93743.09;4286209;33;20197;-60
2023/10/19 09:27:48;;;;;;;1.40;1.40;;;;;;;15.35;88.24;93744.50;4288382;33;20189;-61
2023/10/19 09:30:18;;;;;;;0.77;0.77;;;;;;;15.34;88.94;93742.97;4298898;33;20194;-62
2023/10/19 09:32:46;;;;;;;0.93;0.90;;;;;;;15.27;89.57;93738.28;4300612;33;20237;-62
2023/10/19 09:35:15;;;;;;;1.57;1.57;;;;;;;15.28;89.72;93741.75;4306325;33;20190;-61
2023/10/19 09:40:15;;;;;;;1.03;1.03;;;;;;;15.28;89.72;93739.06;4329984;27;20280;-61
2023/10/19 09:42:48;;;;;;;1.33;1.30;;;;;;;15.11;91.16;93737.69;4278731;33;20287;-60
2023/10/19 09:45:19;;;;;;;1.77;1.30;;;;;;;15.11;90.68;93743.81;4287909;32;20217;-61
2023/10/19 09:53:38;;;;;;;2.40;2.20;;;;;;;15.05;92.19;93731.13;4856997;27;20383;-60
2023/10/19 09:56:08;;;;;;;2.37;2.17;;;;;;;15.10;91.45;93723.56;4277512;33;20249;-60
2023/10/19 09:58:43;;;;;;;1.10;1.07;;;;;;;15.25;90.71;93729.88;4260402;33;20190;-60
2023/10/19 10:01:15;;;;;;;2.73;1.63;;;;;;;15.26;91.48;93734.09;4276723;33;20249;-61
2023/10/19 10:03:59;;;;;;;1.30;1.30;;;;;;;15.28;90.91;93725.72;4294428;33;20252;-60
2023/10/19 10:06:55;;;;;;;1.30;1.20;;;;;;;15.31;90.13;93712.41;4257481;33;20305;-60
2023/10/19 10:09:25;;;;;;;0.57;0.57;;;;;;;15.53;88.82;93715.34;4270855;33;20328;-61
2023/10/19 10:11:55;;;;;;;0.93;0.93;;;;;;;15.51;87.62;93705.00;4270856;33;20267;-61
2023/10/19 10:14:29;;;;;;;0.83;0.83;;;;;;;15.56;86.63;93696.69;4261584;33;20264;-61
2023/10/19 10:17:02;;;;;;;0.93;0.93;;;;;;;15.74;86.45;93692.31;4267167;33;20257;-60
2023/10/19 10:19:28;;;;;;;2.10;1.70;;;;;;;15.72;87.28;93691.16;4240861;33;20242;-61
2023/10/19 10:22:27;;;;;;;2.07;1.23;;;;;;;15.70;87.89;93702.19;4285463;33;20468;-61
2023/10/19 10:25:04;;;;;;;1.90;0.77;;;;;;;15.65;87.95;93693.72;4269634;33;20254;-61
2023/10/19 10:27:33;;;;;;;4.30;1.77;;;;;;;15.66;88.36;93698.72;4278982;33;20189;-61
2023/10/19 10:30:07;;;;;;;1.00;1.00;;;;;;;15.68;88.71;93699.13;4294727;33;20278;-61
2023/10/19 10:32:54;;;;;;;0.83;0.83;;;;;;;15.72;88.74;93704.50;4253932;33;20241;-61
2023/10/19 10:35:46;;;;;;;1.57;1.50;;;;;;;15.75;89.10;93698.44;4229357;33;20268;-61
2023/10/19 10:38:12;;;;;;;1.07;1.07;;;;;;;15.73;88.55;93696.13;4264586;33;20229;-61
2023/10/19 10:40:49;;;;;;;0.77;0.77;;;;;;;15.79;88.27;93686.62;4278238;33;20244;-61
2023/10/19 10:43:16;;;;;;;1.53;1.43;;;;;;;15.81;89.25;93691.59;4238866;33;20198;-63
2023/10/19 10:45:44;;;;;;;1.23;1.13;;;;;;;15.79;88.19;93686.62;4215614;33;20198;-63
2023/10/19 10:48:31;;;;;;;2.47;1.17;;;;;;;15.80;88.70;93688.16;4285421;32;20229;-63
2023/10/19 10:50:57;;;;;;;0.70;0.70;;;;;;;15.81;88.09;93689.72;4262680;33;20206;-61
2023/10/19 10:53:26;;;;;;;1.73;1.37;;;;;;;15.80;88.88;93671.34;4261690;33;20228;-62
2023/10/19 10:55:54;;;;;;;1.23;1.23;;;;;;;15.84;87.62;93674.06;4292354;33;20319;-62
2023/10/19 10:58:20;;;;;;;1.10;1.03;;;;;;;15.92;86.28;93668.44;4291168;33;21682;-61
2023/10/19 11:00:50;;;;;;;1.10;1.10;;;;;;;15.95;84.86;93662.34;4289742;33;20202;-61
2023/10/19 11:03:18;;;;;;;1.17;1.10;;;;;;;16.03;84.47;93661.25;4307165;33;20268;-62
2023/10/19 11:05:45;;;;;;;0.77;0.77;;;;;;;16.12;82.72;93656.41;4335087;33;20197;-62
2023/10/19 11:08:17;;;;;;;1.33;1.23;;;;;;;16.17;83.04;93657.97;4318222;33;20248;-62
2023/10/19 11:10:52;;;;;;;5.97;1.90;;;;;;;16.30;82.96;93643.16;4326972;33;20280;-62
2023/10/19 11:13:24;;;;;;;1.43;1.27;;;;;;;16.33;83.26;93652.34;4303950;33;20240;-62
2023/10/19 11:15:56;;;;;;;1.73;1.63;;;;;;;16.41;83.07;93648.62;4311547;33;20330;-62
2023/10/19 11:18:45;;;;;;;1.87;1.10;;;;;;;16.40;83.89;93658.56;4288126;33;20282;-62
2023/10/19 11:21:14;;;;;;;2.83;1.87;;;;;;;16.42;84.56;93656.25;4299901;33;20190;-62
2023/10/19 11:23:53;;;;;;;1.80;1.73;;;;;;;16.56;85.02;93644.13;4308211;33;20229;-62
2023/10/19 11:26:24;;;;;;;2.67;1.83;;;;;;;16.60;85.09;93644.91;4312486;33;20197;-62
2023/10/19 11:29:09;;;;;;;8.57;2.37;;;;;;;16.54;86.00;93655.19;4306943;33;20332;-62
2023/10/19 11:31:37;;;;;;;1.37;1.23;;;;;;;16.54;86.07;93646.41;4310283;33;20197;-62
2023/10/19 11:34:04;;;;;;;1.97;1.87;;;;;;;16.53;86.45;93639.50;4287666;33;20210;-61
2023/10/19 11:36:33;;;;;;;1.90;1.80;;;;;;;16.50;86.38;93631.06;4312483;33;20237;-62
2023/10/19 11:38:59;;;;;;;1.63;1.60;;;;;;;16.40;87.28;93614.94;4297130;33;20213;-62
2023/10/19 11:41:27;;;;;;;2.00;1.90;;;;;;;16.42;87.31;93613.41;4295820;33;20194;-62
2023/10/19 11:43:54;;;;;;;6.53;3.03;;;;;;;16.45;86.80;93591.25;4279893;33;20233;-62
2023/10/19 11:46:25;;;;;;;6.90;2.43;;;;;;;16.59;86.79;93584.47;4294036;33;20273;-61
2023/10/19 11:48:52;;;;;;;1.33;1.33;;;;;;;16.63;86.75;93587.91;4296590;33;20269;-62
2023/10/19 11:51:20;;;;;;;2.63;1.87;;;;;;;16.57;87.39;93578.72;4273736;33;20230;-62
2023/10/19 11:53:47;;;;;;;1.40;1.40;;;;;;;16.56;88.69;93582.53;4258774;33;20270;-62
2023/10/19 11:56:15;;;;;;;2.10;1.70;;;;;;;16.54;89.17;93587.50;4306360;33;20198;-62
2023/10/19 11:58:46;;;;;;;1.90;1.80;;;;;;;16.57;89.50;93582.19;4268912;33;20338;-62
2023/10/19 12:01:13;;;;;;;1.40;1.30;;;;;;;16.64;88.69;93568.84;4290227;32;20241;-62
2023/10/19 12:03:41;;;;;;;1.63;1.53;;;;;;;16.67;88.96;93562.75;4287423;33;20281;-61
2023/10/19 12:06:12;;;;;;;1.37;1.37;;;;;;;16.60;89.63;93564.59;4256480;33;20191;-62
2023/10/19 12:08:43;;;;;;;2.07;1.53;;;;;;;16.65;90.00;93556.97;4282888;33;20270;-62
2023/10/19 12:11:19;;;;;;;1.07;1.07;;;;;;;16.67;90.07;93549.34;4307622;33;20252;-59
2023/10/19 12:13:45;;;;;;;1.33;1.23;;;;;;;16.80;88.17;93557.84;4316632;33;20244;-59
2023/10/19 12:16:15;;;;;;;1.43;0.87;;;;;;;17.01;85.74;93557.94;4300966;33;20227;-59
2023/10/19 12:19:14;;;;;;;2.90;1.27;;;;;;;17.27;84.46;93569.50;4302920;33;20219;-60
2023/10/19 12:21:41;;;;;;;1.13;1.13;;;;;;;17.60;83.87;93566.53;4316309;33;20189;-59
2023/10/19 12:24:15;;;;;;;0.60;0.60;;;;;;;17.72;83.77;93573.47;4288527;33;20190;-59
2023/10/19 12:27:03;;;;;;;5.13;1.87;;;;;;;17.83;83.77;93566.97;4324151;33;20202;-61
2023/10/19 12:29:32;;;;;;;2.13;1.93;;;;;;;17.75;83.45;93560.06;4316086;33;20197;-62
2023/10/19 12:32:01;;;;;;;2.30;1.33;;;;;;;17.50;83.62;93564.56;4315203;33;20228;-62
2023/10/19 12:34:57;;;;;;;0.60;0.60;;;;;;;17.39;84.19;93555.75;4310392;33;20202;-63
2023/10/19 12:37:51;;;;;;;0.90;0.90;;;;;;;17.14;86.33;93545.72;4322457;33;20228;-63
2023/10/19 12:40:29;;;;;;;2.03;1.40;;;;;;;17.15;86.18;93543.81;4315548;33;20272;-63
2023/10/19 12:42:57;;;;;;;1.20;1.17;;;;;;;17.25;85.83;93524.31;4294744;33;20191;-62
2023/10/19 12:45:36;;;;;;;0.90;0.90;;;;;;;17.16;86.23;93524.69;4300428;33;20264;-63
2023/10/19 12:48:04;;;;;;;0.93;0.93;;;;;;;17.34;85.42;93532.00;4314583;33;20194;-63